createdAt,value
2019-05-01T00:01:14.348Z,18.40
2019-05-01T00:06:16.826Z,19.13
2019-05-01T00:11:19.289Z,18.60
2019-05-01T00:16:21.770Z,18.57
2019-05-01T00:21:24.253Z,19.93
2019-05-01T00:26:26.707Z,19.97
2019-05-01T00:31:29.178Z,19.53
2019-05-01T00:36:31.656Z,21.37
2019-05-01T00:41:34.133Z,20.90
2019-05-01T00:46:36.608Z,21.90
2019-05-01T00:51:39.080Z,20.97
2019-05-01T00:56:47.382Z,20.20
2019-05-01T01:01:49.861Z,18.97
2019-05-01T01:06:52.338Z,20.77
2019-05-01T01:11:54.814Z,21.00
2019-05-01T01:16:57.267Z,21.57
2019-05-01T01:21:59.735Z,20.90
2019-05-01T01:27:02.219Z,20.80
2019-05-01T01:32:04.688Z,19.70
2019-05-01T01:37:07.154Z,19.73
2019-05-01T01:42:09.613Z,18.43
2019-05-01T01:47:12.074Z,19.17
2019-05-01T01:52:14.547Z,18.77
2019-05-01T01:57:17.016Z,20.50
2019-05-01T02:02:19.481Z,18.67
2019-05-01T02:07:21.941Z,16.33
2019-05-01T02:12:24.409Z,17.17
2019-05-01T02:17:26.881Z,16.70
2019-05-01T02:22:29.345Z,16.90
2019-05-01T02:27:47.099Z,18.23
2019-05-01T02:32:49.564Z,16.20
2019-05-01T02:37:52.232Z,15.97
2019-05-01T02:42:54.697Z,14.27
2019-05-01T02:47:57.163Z,15.00
2019-05-01T02:52:59.624Z,13.63
2019-05-01T02:58:02.095Z,14.93
2019-05-01T03:03:04.556Z,14.53
2019-05-01T03:08:07.020Z,13.67
2019-05-01T03:13:09.478Z,13.50
2019-05-01T03:18:27.127Z,12.97
2019-05-01T03:23:32.554Z,13.13
2019-05-01T03:28:35.019Z,13.43
2019-05-01T03:33:37.494Z,14.30
2019-05-01T03:38:39.959Z,13.50
2019-05-01T03:43:42.416Z,14.13
2019-05-01T03:48:44.879Z,13.63
2019-05-01T03:53:47.350Z,13.17
2019-05-01T03:58:49.817Z,13.93
2019-05-01T04:03:52.297Z,12.20
2019-05-01T04:08:56.514Z,12.97
2019-05-01T04:13:57.235Z,13.43
2019-05-01T04:18:59.681Z,13.10
2019-05-01T04:24:02.138Z,12.93
2019-05-01T04:29:13.668Z,14.27
2019-05-01T04:34:22.143Z,13.40
2019-05-01T04:39:24.612Z,14.10
2019-05-01T04:44:27.071Z,13.30
2019-05-01T04:49:29.534Z,13.63
2019-05-01T04:54:31.988Z,12.63
2019-05-01T04:59:34.447Z,13.33
2019-05-01T05:04:36.910Z,13.30
2019-05-01T05:09:42.308Z,13.23
2019-05-01T05:14:44.756Z,13.60
2019-05-01T05:19:47.226Z,13.23
2019-05-01T05:24:49.722Z,12.70
2019-05-01T05:29:52.201Z,12.20
2019-05-01T05:34:54.676Z,12.50
2019-05-01T05:39:57.148Z,12.73
2019-05-01T05:44:59.622Z,13.03
2019-05-01T05:50:02.102Z,12.20
2019-05-01T05:55:04.582Z,11.77
2019-05-01T06:00:25.080Z,12.67
2019-05-01T06:05:30.508Z,12.40
2019-05-01T06:10:32.981Z,15.00
2019-05-01T06:15:36.629Z,15.77
2019-05-01T06:20:47.122Z,15.80
2019-05-01T06:25:54.173Z,14.70
2019-05-01T06:30:52.180Z,15.23
2019-05-01T06:35:54.708Z,16.90
2019-05-01T06:40:58.133Z,16.50
2019-05-01T06:46:13.304Z,16.13
2019-05-01T06:51:32.344Z,16.03
2019-05-01T06:56:34.822Z,17.33
2019-05-01T07:01:37.336Z,16.50
2019-05-01T07:06:39.817Z,16.43
2019-05-01T07:11:42.722Z,16.43
2019-05-01T07:16:44.754Z,17.27
2019-05-01T07:21:47.223Z,15.80
2019-05-01T07:26:49.702Z,14.13
2019-05-01T07:31:52.174Z,15.03
2019-05-01T07:36:54.647Z,14.70
2019-05-01T07:41:57.123Z,12.97
2019-05-01T07:47:05.447Z,13.57
2019-05-01T07:52:08.038Z,12.53
2019-05-01T07:57:10.500Z,12.43
2019-05-01T08:02:12.979Z,12.57
2019-05-01T08:07:15.436Z,12.73
2019-05-01T08:12:18.852Z,12.20
2019-05-01T08:17:20.395Z,12.53
2019-05-01T08:22:22.880Z,11.17
2019-05-01T08:27:28.264Z,10.33
2019-05-01T08:32:39.128Z,9.88
2019-05-01T08:37:39.116Z,8.73
2019-05-01T08:42:42.688Z,6.93
2019-05-01T08:47:44.011Z,7.37
2019-05-01T08:52:47.473Z,7.47
2019-05-01T08:57:48.962Z,6.62
2019-05-01T09:02:51.409Z,6.30
2019-05-01T09:07:56.032Z,6.60
2019-05-01T09:12:56.311Z,6.18
2019-05-01T09:17:58.769Z,7.10
2019-05-01T09:23:01.238Z,6.40
2019-05-01T09:28:04.281Z,6.40
2019-05-01T09:33:06.129Z,6.50
2019-05-01T09:38:08.612Z,6.68
2019-05-01T09:43:11.077Z,6.75
2019-05-01T09:48:13.549Z,6.85
2019-05-01T09:53:34.209Z,6.40
2019-05-01T09:58:33.783Z,6.60
2019-05-01T10:03:36.242Z,6.62
2019-05-01T10:08:40.053Z,6.53
2019-05-01T10:13:41.189Z,6.72
2019-05-01T10:18:43.669Z,6.97
2019-05-01T10:23:47.131Z,6.47
2019-05-01T10:29:00.814Z,6.15
2019-05-01T10:34:07.551Z,6.18
2019-05-01T10:39:05.760Z,7.47
2019-05-01T10:44:08.233Z,7.28
2019-05-01T10:49:10.699Z,7.18
2019-05-01T10:54:13.161Z,6.05
2019-05-01T10:59:15.648Z,7.22
2019-05-01T11:04:18.171Z,6.57
2019-05-01T11:09:20.643Z,6.18
2019-05-01T11:14:23.119Z,6.30
2019-05-01T11:19:25.586Z,6.15
2019-05-01T11:24:28.044Z,5.50
2019-05-01T11:29:30.501Z,6.73
2019-05-01T11:34:51.313Z,5.57
2019-05-01T11:39:59.909Z,5.62
2019-05-01T11:45:02.417Z,5.70
2019-05-01T11:50:04.873Z,5.72
2019-05-01T11:55:07.325Z,4.72
2019-05-01T12:00:09.777Z,4.65
2019-05-01T12:05:12.247Z,5.00
2019-05-01T12:10:14.713Z,5.03
2019-05-01T12:15:17.189Z,5.85
2019-05-01T12:20:19.642Z,5.62
2019-05-01T12:25:22.099Z,5.95
2019-05-01T12:30:24.578Z,5.22
2019-05-01T12:35:27.046Z,5.25
2019-05-01T12:40:29.503Z,5.43
2019-05-01T12:45:32.037Z,5.80
2019-05-01T12:50:34.517Z,9.00
2019-05-01T12:55:55.254Z,7.37
2019-05-01T13:00:57.709Z,15.43
2019-05-01T13:06:00.180Z,8.27
2019-05-01T13:11:02.641Z,6.40
2019-05-01T13:16:05.120Z,6.13
2019-05-01T13:21:07.578Z,6.20
2019-05-01T13:26:10.048Z,6.40
2019-05-01T13:31:12.512Z,6.80
2019-05-01T13:36:15.015Z,10.83
2019-05-01T13:41:17.483Z,6.60
2019-05-01T13:46:19.995Z,6.83
2019-05-01T13:51:22.449Z,7.60
2019-05-01T13:56:25.517Z,6.77
2019-05-01T14:01:27.809Z,6.47
2019-05-01T14:06:30.264Z,6.50
2019-05-01T14:11:32.732Z,6.37
2019-05-01T14:16:35.211Z,6.90
2019-05-01T14:21:37.737Z,6.53
2019-05-01T14:26:40.181Z,6.30
2019-05-01T14:31:42.700Z,5.73
2019-05-01T14:36:45.181Z,6.67
2019-05-01T14:41:47.651Z,6.13
2019-05-01T14:46:50.105Z,6.63
2019-05-01T14:51:52.583Z,5.90
2019-05-01T14:56:55.047Z,5.53
2019-05-01T15:01:57.498Z,5.70
2019-05-01T15:06:59.972Z,5.27
2019-05-01T15:12:02.442Z,6.03
2019-05-01T15:17:04.901Z,5.60
2019-05-01T15:22:07.364Z,5.13
2019-05-01T15:27:09.822Z,5.10
2019-05-01T15:32:12.375Z,4.93
2019-05-01T15:37:14.845Z,5.43
2019-05-01T15:42:29.530Z,5.60
2019-05-01T15:47:31.996Z,5.43
2019-05-01T15:52:34.487Z,5.30
2019-05-01T15:57:36.976Z,5.07
2019-05-01T16:02:39.427Z,5.27
2019-05-01T16:07:41.894Z,5.70
2019-05-01T16:12:44.358Z,8.87
2019-05-01T16:17:46.813Z,9.40
2019-05-01T16:22:49.297Z,6.10
2019-05-01T16:27:51.776Z,5.90
2019-05-01T16:32:54.248Z,5.97
2019-05-01T16:37:56.724Z,5.37
2019-05-01T16:42:59.173Z,5.60
2019-05-01T16:48:01.635Z,5.23
2019-05-01T16:53:04.143Z,5.53
2019-05-01T16:58:06.629Z,6.70
2019-05-01T17:03:14.964Z,5.93
2019-05-01T17:08:20.442Z,5.17
2019-05-01T17:13:22.909Z,5.90
2019-05-01T17:18:25.360Z,5.53
2019-05-01T17:23:27.818Z,6.27
2019-05-01T17:28:32.698Z,5.53
2019-05-01T17:33:32.931Z,5.80
2019-05-01T17:38:35.391Z,5.90
2019-05-01T17:43:37.894Z,7.17
2019-05-01T17:48:40.360Z,5.30
2019-05-01T17:53:42.828Z,4.73
2019-05-01T17:58:45.308Z,5.53
2019-05-01T18:03:53.950Z,6.00
2019-05-01T18:09:02.874Z,5.97
2019-05-01T18:13:58.884Z,6.97
2019-05-01T18:19:01.597Z,6.63
2019-05-01T18:24:10.299Z,6.77
2019-05-01T18:29:12.792Z,6.10
2019-05-01T18:34:15.276Z,6.77
2019-05-01T18:39:25.807Z,9.23
2019-05-01T18:44:26.201Z,9.23
2019-05-01T18:49:28.666Z,8.53
2019-05-01T18:54:35.022Z,8.93
2019-05-01T18:59:33.658Z,11.17
2019-05-01T19:04:37.792Z,11.90
2019-05-01T19:09:38.596Z,8.93
2019-05-01T19:14:41.083Z,8.53
2019-05-01T19:19:43.620Z,8.80
2019-05-01T19:24:46.119Z,9.00
2019-05-01T19:29:48.595Z,9.03
2019-05-01T19:34:51.090Z,8.37
2019-05-01T19:39:54.981Z,8.87
2019-05-01T19:44:57.443Z,8.77
2019-05-01T19:50:06.659Z,8.77
2019-05-01T19:55:01.344Z,9.33
2019-05-01T20:00:03.483Z,13.13
2019-05-01T20:05:05.931Z,12.10
2019-05-01T20:10:08.427Z,12.90
2019-05-01T20:15:10.895Z,12.80
2019-05-01T20:20:13.357Z,14.57
2019-05-01T20:25:19.397Z,17.97
2019-05-01T20:30:18.358Z,20.80
2019-05-01T20:35:23.882Z,21.57
2019-05-01T20:40:23.352Z,21.07
2019-05-01T20:45:25.870Z,20.97
2019-05-01T20:50:28.306Z,27.00
2019-05-01T20:55:30.784Z,26.93
2019-05-01T21:00:33.333Z,22.20
2019-05-01T21:05:35.792Z,18.40
2019-05-01T21:10:51.074Z,13.83
2019-05-01T21:15:56.456Z,15.73
2019-05-01T21:20:56.232Z,14.90
2019-05-01T21:25:58.710Z,12.63
2019-05-01T21:31:01.190Z,11.43
2019-05-01T21:36:04.864Z,14.27
2019-05-01T21:41:06.170Z,29.20
2019-05-01T21:46:08.640Z,52.83
2019-05-01T21:51:12.576Z,69.90
2019-05-01T21:56:13.572Z,47.17
2019-05-01T22:01:16.089Z,32.80
2019-05-01T22:06:18.589Z,24.90
2019-05-01T22:11:21.052Z,22.30
2019-05-01T22:16:23.705Z,16.13
2019-05-01T22:21:25.993Z,15.50
2019-05-01T22:26:28.459Z,13.30
2019-05-01T22:31:52.931Z,13.50
2019-05-01T22:36:51.212Z,12.43
2019-05-01T22:41:53.675Z,13.07
2019-05-01T22:46:56.144Z,12.87
2019-05-01T22:51:58.621Z,12.30
2019-05-01T22:57:01.082Z,12.97
2019-05-01T23:02:03.539Z,10.50
2019-05-01T23:07:06.016Z,10.37
2019-05-01T23:12:08.487Z,10.20
2019-05-01T23:17:10.949Z,10.63
2019-05-01T23:22:13.418Z,10.47
2019-05-01T23:27:15.876Z,11.23
2019-05-01T23:32:18.356Z,11.90
2019-05-01T23:37:20.820Z,11.07
2019-05-01T23:42:23.295Z,11.30
2019-05-01T23:47:25.759Z,11.60
2019-05-01T23:52:28.218Z,12.00
2019-05-01T23:57:30.679Z,11.13
